Time;durP1;ratioP1;P1;durP2;ratioP2;P2;SDS_P1;SDS_P2;PMS_P1;PMS_P2;Temp;Humidity;BMP_temperature;BMP_pressure;BME280_temperature;BME280_humidity;BME280_pressure;Samples;Min_cycle;Max_cycle;Signal;HPM_P1;HPM_P2
2023/07/14 00:01:52;;;;;;;3.95;2.13;;;;;;;14.01;100.00;101184.84;5010804;28;20132;-60
2023/07/14 00:04:31;;;;;;;4.95;2.20;;;;;;;13.99;100.00;101177.91;5010697;28;20109;-60
2023/07/14 00:06:58;;;;;;;4.72;2.10;;;;;;;13.97;100.00;101185.31;5010446;28;20063;-59
2023/07/14 00:09:28;;;;;;;4.90;1.85;;;;;;;13.94;100.00;101182.97;5009805;28;20045;-60
2023/07/14 00:11:56;;;;;;;4.40;2.20;;;;;;;13.95;100.00;101181.97;5011276;28;20049;-60
2023/07/14 00:14:23;;;;;;;4.68;2.22;;;;;;;13.92;100.00;101175.06;5009176;28;20045;-60
2023/07/14 00:16:49;;;;;;;2.88;2.13;;;;;;;13.95;100.00;101179.28;5008534;28;20125;-60
2023/07/14 00:19:17;;;;;;;4.15;2.20;;;;;;;13.92;100.00;101171.53;5011711;28;20049;-60
2023/07/14 00:21:46;;;;;;;4.32;2.22;;;;;;;13.88;100.00;101178.28;5010686;28;20050;-59
2023/07/14 00:24:15;;;;;;;6.00;1.88;;;;;;;13.87;100.00;101171.19;5008868;28;20069;-62
2023/07/14 00:26:44;;;;;;;2.78;1.83;;;;;;;13.83;100.00;101173.38;5008714;28;20042;-60
2023/07/14 00:29:38;;;;;;;3.50;2.13;;;;;;;13.82;100.00;101169.84;5010531;28;20099;-59
2023/07/14 00:32:20;;;;;;;7.43;2.63;;;;;;;13.82;100.00;101164.44;5024782;28;20144;-60
2023/07/14 00:34:47;;;;;;;6.80;2.40;;;;;;;13.82;100.00;101177.94;5030969;28;20061;-60
2023/07/14 00:37:14;;;;;;;3.35;2.33;;;;;;;13.79;100.00;101180.97;5030761;28;20041;-59
2023/07/14 00:39:41;;;;;;;5.57;2.08;;;;;;;13.77;100.00;101185.69;5030468;28;20125;-59
2023/07/14 00:42:12;;;;;;;7.22;2.25;;;;;;;13.75;100.00;101167.97;5028794;28;20441;-59
2023/07/14 00:44:38;;;;;;;6.32;2.20;;;;;;;13.76;100.00;101170.50;5030174;28;20452;-59
2023/07/14 00:47:17;;;;;;;4.18;2.20;;;;;;;13.74;100.00;101172.53;5030425;28;20069;-60
2023/07/14 00:49:44;;;;;;;2.63;1.80;;;;;;;13.70;100.00;101173.88;5029859;28;20045;-59
2023/07/14 00:52:19;;;;;;;5.53;2.08;;;;;;;13.69;100.00;101172.19;5028230;28;20093;-59
2023/07/14 00:54:51;;;;;;;4.00;2.35;;;;;;;13.67;100.00;101174.22;5030810;28;20488;-60
2023/07/14 00:57:26;;;;;;;5.22;2.00;;;;;;;13.69;100.00;101168.63;5030740;28;20037;-64
2023/07/14 00:59:59;;;;;;;6.07;2.35;;;;;;;13.68;100.00;101178.59;5030285;28;20117;-59
2023/07/14 01:02:25;;;;;;;2.60;2.10;;;;;;;13.72;100.00;101179.09;5030691;28;20076;-60
2023/07/14 01:08:30;;;;;;;4.72;1.95;;;;;;;13.75;100.00;101178.75;5027799;28;20045;-59
2023/07/14 01:10:58;;;;;;;4.05;2.00;;;;;;;13.77;100.00;101179.47;5027305;28;20053;-61
2023/07/14 01:13:25;;;;;;;5.22;2.00;;;;;;;13.74;100.00;101182.47;5028310;28;20049;-59
2023/07/14 01:15:52;;;;;;;4.45;2.22;;;;;;;13.74;100.00;101185.16;5028035;28;20567;-59
2023/07/14 01:18:20;;;;;;;4.10;2.17;;;;;;;13.59;100.00;101169.69;5027960;28;20128;-60
2023/07/14 01:20:46;;;;;;;6.65;2.40;;;;;;;13.58;100.00;101177.91;5027529;28;20503;-59
2023/07/14 01:23:45;;;;;;;3.25;2.33;;;;;;;13.50;100.00;101180.63;5027588;28;20470;-60
2023/07/14 01:26:18;;;;;;;4.60;2.38;;;;;;;13.44;100.00;101179.44;5021086;28;20069;-60
2023/07/14 01:28:46;;;;;;;7.82;3.03;;;;;;;13.37;100.00;101180.28;5027119;28;20445;-60
2023/07/14 01:31:18;;;;;;;5.35;2.67;;;;;;;13.31;100.00;101179.91;5016305;28;20522;-61
2023/07/14 01:33:45;;;;;;;4.28;2.33;;;;;;;13.25;100.00;101177.91;5008052;28;20516;-60
2023/07/14 01:36:11;;;;;;;7.43;2.58;;;;;;;13.21;100.00;101183.78;4991413;28;20096;-60
2023/07/14 01:38:38;;;;;;;4.78;2.67;;;;;;;13.13;100.00;101179.22;5007843;28;20054;-60
2023/07/14 01:41:06;;;;;;;6.18;2.63;;;;;;;13.08;100.00;101187.81;5007698;28;20053;-60
2023/07/14 01:43:33;;;;;;;5.78;2.80;;;;;;;13.02;100.00;101183.09;5009736;28;20054;-59
2023/07/14 01:46:02;;;;;;;4.72;2.35;;;;;;;13.01;100.00;101185.97;5010387;28;20073;-60
2023/07/14 01:48:39;;;;;;;7.40;2.60;;;;;;;12.97;100.00;101180.06;5008159;28;20128;-59
2023/07/14 01:51:09;;;;;;;5.90;2.70;;;;;;;12.93;100.00;101180.53;5009401;28;20469;-60
2023/07/14 01:53:48;;;;;;;5.13;2.85;;;;;;;12.90;100.00;101180.84;5009391;28;20066;-60
2023/07/14 01:56:19;;;;;;;6.28;2.30;;;;;;;12.88;100.00;101195.34;5009452;28;20184;-60
2023/07/14 01:58:56;;;;;;;4.50;2.58;;;;;;;12.88;100.00;101194.50;5010147;28;20049;-60
2023/07/14 02:01:25;;;;;;;6.55;3.22;;;;;;;12.86;100.00;101189.25;5010344;28;20497;-60
2023/07/14 02:03:54;;;;;;;5.22;2.88;;;;;;;12.88;100.00;101189.94;5009142;28;20045;-60
2023/07/14 02:06:23;;;;;;;6.80;3.00;;;;;;;12.86;100.00;101189.25;5008545;28;20108;-60
2023/07/14 02:08:50;;;;;;;5.88;2.63;;;;;;;12.80;100.00;101192.63;5008042;28;20061;-60
2023/07/14 02:11:19;;;;;;;4.88;3.00;;;;;;;12.81;100.00;101201.56;5008880;28;20405;-60
2023/07/14 02:13:46;;;;;;;5.05;2.70;;;;;;;12.76;100.00;101203.88;5011189;28;20066;-59
2023/07/14 02:16:15;;;;;;;6.85;3.08;;;;;;;12.73;100.00;101201.47;5013558;28;20088;-60
2023/07/14 02:18:44;;;;;;;6.05;2.72;;;;;;;12.76;100.00;101198.47;5013250;28;20104;-60
2023/07/14 02:21:14;;;;;;;5.13;2.75;;;;;;;12.74;100.00;101206.75;5013367;28;20046;-59
2023/07/14 02:23:41;;;;;;;9.02;3.53;;;;;;;12.73;100.00;101205.03;5013132;28;20099;-59
2023/07/14 02:26:20;;;;;;;5.50;2.63;;;;;;;12.76;100.00;101206.56;5013213;28;20049;-60
2023/07/14 02:28:47;;;;;;;5.57;2.70;;;;;;;12.73;100.00;101209.53;5013390;28;20046;-60
2023/07/14 02:31:44;;;;;;;3.83;2.90;;;;;;;12.77;100.00;101209.09;5023639;28;20123;-60
2023/07/14 02:34:12;;;;;;;5.13;3.03;;;;;;;12.75;100.00;101205.72;5031870;28;20052;-61
2023/07/14 02:36:55;;;;;;;5.35;2.60;;;;;;;12.73;100.00;101206.84;5032938;28;20046;-61
2023/07/14 02:39:22;;;;;;;4.47;2.60;;;;;;;12.73;100.00;101210.41;5031876;28;20108;-59
2023/07/14 02:41:51;;;;;;;6.43;3.20;;;;;;;12.72;100.00;101214.09;5031787;28;20103;-59
2023/07/14 02:44:19;;;;;;;6.50;2.80;;;;;;;12.69;100.00;101214.41;5032721;28;20053;-60
2023/07/14 02:46:57;;;;;;;8.82;3.08;;;;;;;12.69;100.00;101225.19;5030955;28;20049;-59
2023/07/14 02:49:23;;;;;;;8.82;2.85;;;;;;;12.65;100.00;101219.28;5031135;28;20045;-60
2023/07/14 02:51:50;;;;;;;4.45;2.78;;;;;;;12.64;100.00;101231.06;5031793;28;20103;-59
2023/07/14 02:54:16;;;;;;;6.28;3.20;;;;;;;12.64;100.00;101227.53;5032610;28;20476;-60
2023/07/14 02:56:43;;;;;;;6.22;3.35;;;;;;;12.67;100.00;101232.59;5032160;28;20041;-59
2023/07/14 02:59:12;;;;;;;6.13;3.47;;;;;;;12.62;100.00;101226.84;5031670;28;20045;-59
2023/07/14 03:01:39;;;;;;;4.72;3.42;;;;;;;12.56;100.00;101231.03;5029936;28;20202;-60
2023/07/14 03:04:06;;;;;;;7.05;2.75;;;;;;;12.51;100.00;101237.88;5031961;28;20049;-60
2023/07/14 03:06:32;;;;;;;9.40;3.10;;;;;;;12.50;100.00;101238.91;5046782;28;20551;-60
2023/07/14 03:08:59;;;;;;;8.02;2.67;;;;;;;12.48;100.00;101240.91;5030716;28;20468;-59
2023/07/14 03:11:25;;;;;;;6.97;3.00;;;;;;;12.47;100.00;101239.22;5032110;28;20103;-60
2023/07/14 03:13:52;;;;;;;6.85;3.38;;;;;;;12.50;100.00;101230.81;5031370;28;20489;-59
2023/07/14 03:16:19;;;;;;;6.93;3.05;;;;;;;12.55;100.00;101242.78;5031998;28;20092;-59
2023/07/14 03:18:46;;;;;;;6.53;3.40;;;;;;;12.56;100.00;101238.25;5030920;28;20111;-60
2023/07/14 03:21:12;;;;;;;6.82;3.35;;;;;;;12.56;100.00;101240.97;5030889;28;20049;-60
2023/07/14 03:23:39;;;;;;;10.25;3.30;;;;;;;12.56;100.00;101239.09;5030536;28;20046;-60
2023/07/14 03:26:08;;;;;;;7.95;3.30;;;;;;;12.59;100.00;101241.47;5031718;28;20049;-58
2023/07/14 03:28:36;;;;;;;6.25;3.88;;;;;;;12.68;100.00;101253.13;5031518;28;20167;-59
2023/07/14 03:31:04;;;;;;;5.55;3.45;;;;;;;12.71;100.00;101239.34;5020993;28;20457;-60
2023/07/14 03:33:34;;;;;;;4.93;3.47;;;;;;;12.74;100.00;101246.25;5011387;28;20092;-59
2023/07/14 03:36:08;;;;;;;9.38;3.97;;;;;;;12.78;100.00;101240.41;5011598;28;20501;-60
2023/07/14 03:38:44;;;;;;;6.50;3.25;;;;;;;12.75;100.00;101238.03;5010732;28;20049;-60
2023/07/14 03:41:13;;;;;;;10.57;4.90;;;;;;;12.73;100.00;101231.94;5012360;28;20074;-60
2023/07/14 03:43:41;;;;;;;11.32;5.50;;;;;;;12.76;100.00;101236.19;5012030;28;20493;-59
2023/07/14 03:46:08;;;;;;;5.47;3.35;;;;;;;12.75;100.00;101235.34;5010935;28;20049;-61
2023/07/14 03:48:34;;;;;;;6.95;3.90;;;;;;;12.76;100.00;101237.00;5010931;28;20052;-60
2023/07/14 03:51:05;;;;;;;4.55;3.38;;;;;;;12.76;100.00;101236.19;5011487;28;20462;-60
2023/07/14 03:53:31;;;;;;;10.10;3.50;;;;;;;12.86;100.00;101237.72;5010515;28;20508;-59
2023/07/14 03:55:58;;;;;;;9.38;3.47;;;;;;;12.84;100.00;101245.16;5010762;28;20516;-59
2023/07/14 03:58:25;;;;;;;5.50;3.22;;;;;;;12.81;100.00;101234.69;5010060;28;20116;-60
2023/07/14 04:00:51;;;;;;;10.70;4.35;;;;;;;12.81;100.00;101231.16;5009530;28;20494;-63
2023/07/14 04:03:18;;;;;;;9.63;3.92;;;;;;;12.80;100.00;101234.84;5010880;28;20466;-58
2023/07/14 04:05:46;;;;;;;8.77;3.67;;;;;;;12.78;100.00;101228.78;5009465;28;20042;-59
2023/07/14 04:08:13;;;;;;;5.97;3.60;;;;;;;12.87;100.00;101234.06;5009617;28;20439;-59
2023/07/14 04:10:40;;;;;;;9.50;3.30;;;;;;;12.82;100.00;101231.00;5009749;28;20065;-60
2023/07/14 04:13:06;;;;;;;7.80;3.28;;;;;;;12.79;100.00;101236.69;5009592;28;20046;-59
2023/07/14 04:15:33;;;;;;;8.68;3.65;;;;;;;12.83;100.00;101234.53;5009505;28;20046;-59
2023/07/14 04:17:59;;;;;;;7.13;3.58;;;;;;;12.80;100.00;101233.03;5009749;28;20049;-60
2023/07/14 04:20:26;;;;;;;8.32;4.03;;;;;;;12.81;100.00;101241.94;5009126;28;20050;-61
2023/07/14 04:22:52;;;;;;;6.22;3.25;;;;;;;12.83;100.00;101242.59;5010079;28;20473;-61
2023/07/14 04:25:19;;;;;;;6.57;3.70;;;;;;;12.87;100.00;101244.81;5011100;28;20054;-61
2023/07/14 04:27:46;;;;;;;8.43;3.83;;;;;;;12.85;100.00;101251.38;5009944;28;20062;-60
2023/07/14 04:30:12;;;;;;;7.65;3.72;;;;;;;12.90;100.00;101250.88;5012728;28;20370;-60
2023/07/14 04:32:39;;;;;;;4.63;3.00;;;;;;;13.00;100.00;101247.03;5029367;28;20076;-59
2023/07/14 04:35:06;;;;;;;6.47;3.42;;;;;;;13.00;100.00;101251.59;5029117;28;20140;-59
2023/07/14 04:37:33;;;;;;;5.07;3.38;;;;;;;12.91;100.00;101255.28;5029489;28;20124;-59
2023/07/14 04:39:59;;;;;;;8.88;3.60;;;;;;;12.96;100.00;101253.75;5029967;28;20544;-61
2023/07/14 04:42:26;;;;;;;6.70;3.67;;;;;;;12.95;100.00;101254.78;5028837;28;20046;-60
2023/07/14 04:44:53;;;;;;;6.60;3.30;;;;;;;12.96;100.00;101258.31;5028717;28;20107;-60
2023/07/14 04:47:19;;;;;;;7.00;3.75;;;;;;;13.04;100.00;101266.41;5030271;28;20049;-60
2023/07/14 04:49:46;;;;;;;9.57;3.75;;;;;;;13.08;100.00;101262.41;5029031;28;20057;-59
2023/07/14 04:52:13;;;;;;;8.05;3.40;;;;;;;13.07;100.00;101261.53;5029169;28;20043;-59
2023/07/14 04:54:40;;;;;;;7.90;3.78;;;;;;;13.09;100.00;101266.78;5027876;28;20050;-60
2023/07/14 04:57:07;;;;;;;7.68;3.60;;;;;;;13.21;100.00;101265.44;5028194;28;20053;-61
2023/07/14 04:59:35;;;;;;;8.45;4.03;;;;;;;13.11;100.00;101267.44;5028902;28;20055;-60
2023/07/14 05:02:04;;;;;;;6.95;4.03;;;;;;;12.99;100.00;101263.38;5043680;28;20100;-60
2023/07/14 05:04:32;;;;;;;6.72;3.53;;;;;;;12.96;100.00;101269.09;5029642;28;20091;-61
2023/07/14 05:06:59;;;;;;;6.32;3.60;;;;;;;13.01;100.00;101273.00;5029129;28;20049;-60
2023/07/14 05:09:26;;;;;;;6.43;3.45;;;;;;;13.04;100.00;101271.78;5029235;28;20053;-60
2023/07/14 05:11:52;;;;;;;6.80;3.63;;;;;;;13.17;100.00;101265.94;5029716;28;20108;-61
2023/07/14 05:14:19;;;;;;;11.90;4.47;;;;;;;12.98;100.00;101267.91;5029939;28;20049;-60
2023/07/14 05:16:46;;;;;;;12.93;4.38;;;;;;;13.16;100.00;101270.50;5029376;28;20122;-60
2023/07/14 05:19:12;;;;;;;9.65;3.75;;;;;;;13.37;100.00;101278.13;5030182;28;20053;-60
2023/07/14 05:21:39;;;;;;;7.22;3.70;;;;;;;13.56;100.00;101274.28;5029271;28;20038;-60
2023/07/14 05:24:06;;;;;;;8.25;4.00;;;;;;;13.67;100.00;101279.38;5028197;28;20046;-60
2023/07/14 05:26:33;;;;;;;7.88;3.10;;;;;;;13.73;100.00;101275.13;5029050;28;20068;-58
2023/07/14 05:29:00;;;;;;;7.60;3.92;;;;;;;13.80;100.00;101273.50;5029277;28;20076;-61
2023/07/14 05:31:26;;;;;;;8.63;3.40;;;;;;;13.88;100.00;101269.97;5016502;28;20124;-60
2023/07/14 05:33:53;;;;;;;8.00;4.53;;;;;;;13.86;100.00;101270.13;5008129;28;20072;-59
2023/07/14 05:36:20;;;;;;;17.33;9.90;;;;;;;13.89;100.00;101268.97;5009910;28;20042;-61
2023/07/14 05:38:46;;;;;;;10.18;4.53;;;;;;;13.91;100.00;101275.00;5009634;28;20123;-60
2023/07/14 05:41:13;;;;;;;6.85;4.18;;;;;;;13.66;100.00;101277.66;5009314;28;20053;-60
2023/07/14 05:43:40;;;;;;;6.20;3.67;;;;;;;13.78;100.00;101276.38;5009219;28;20096;-60
2023/07/14 05:46:07;;;;;;;8.18;2.95;;;;;;;13.99;100.00;101275.03;5010313;28;20068;-60
2023/07/14 05:48:33;;;;;;;6.80;2.83;;;;;;;14.48;100.00;101283.06;5012428;28;20509;-62
2023/07/14 05:51:00;;;;;;;7.30;3.10;;;;;;;14.74;100.00;101282.84;5012909;28;20050;-62
2023/07/14 05:53:27;;;;;;;7.45;3.45;;;;;;;14.71;100.00;101283.16;5012779;28;20140;-61
2023/07/14 05:55:56;;;;;;;8.18;3.72;;;;;;;14.67;100.00;101279.97;5012246;28;20053;-60
2023/07/14 05:58:23;;;;;;;8.60;3.28;;;;;;;14.28;100.00;101275.31;5012755;28;20489;-61
2023/07/14 06:00:53;;;;;;;10.15;3.50;;;;;;;14.40;100.00;101270.41;5011865;28;20061;-61
2023/07/14 06:03:19;;;;;;;6.15;3.22;;;;;;;14.34;100.00;101276.50;5012904;28;20491;-62
2023/07/14 06:05:47;;;;;;;11.32;4.35;;;;;;;14.47;100.00;101279.50;5012465;28;20050;-61
2023/07/14 06:08:15;;;;;;;4.75;2.80;;;;;;;14.54;100.00;101279.66;5012609;28;20045;-61
2023/07/14 06:10:41;;;;;;;7.03;3.17;;;;;;;14.80;100.00;101281.31;5013019;28;20164;-61
2023/07/14 06:13:08;;;;;;;9.52;3.22;;;;;;;14.62;100.00;101278.78;5012857;28;20060;-60
2023/07/14 06:15:35;;;;;;;9.80;2.83;;;;;;;14.71;100.00;101277.78;5012947;28;20052;-60
2023/07/14 06:18:01;;;;;;;5.85;3.03;;;;;;;14.71;100.00;101277.78;5012722;28;20045;-60
2023/07/14 06:20:28;;;;;;;8.60;3.80;;;;;;;14.53;100.00;101280.66;5011868;28;20042;-60
2023/07/14 06:22:57;;;;;;;7.13;3.20;;;;;;;14.54;100.00;101283.22;5011862;28;20063;-59
2023/07/14 06:25:24;;;;;;;5.22;3.00;;;;;;;14.55;100.00;101284.03;5012822;28;20041;-60
2023/07/14 06:27:51;;;;;;;5.20;3.00;;;;;;;14.52;100.00;101276.28;5012896;28;20520;-60
2023/07/14 06:30:17;;;;;;;12.73;2.97;;;;;;;14.54;100.00;101276.97;5015945;28;20057;-61
2023/07/14 06:32:44;;;;;;;8.88;3.08;;;;;;;14.63;100.00;101275.91;5011757;28;20046;-61
2023/07/14 06:35:12;;;;;;;5.57;3.20;;;;;;;14.87;100.00;101277.72;5011423;28;20058;-60
2023/07/14 06:37:39;;;;;;;5.55;3.13;;;;;;;14.76;100.00;101280.81;5012215;28;20052;-61
2023/07/14 06:40:08;;;;;;;12.27;2.90;;;;;;;15.12;100.00;101278.47;5011961;28;20108;-60
2023/07/14 06:42:35;;;;;;;9.93;3.70;;;;;;;15.20;100.00;101274.88;5011262;28;20489;-59
2023/07/14 06:45:03;;;;;;;5.03;2.70;;;;;;;15.52;100.00;101276.53;5011702;28;20516;-60
2023/07/14 06:47:32;;;;;;;6.95;3.03;;;;;;;15.52;100.00;101273.84;5011759;28;20052;-60
2023/07/14 06:49:59;;;;;;;4.95;2.60;;;;;;;15.40;100.00;101278.81;5011984;28;20050;-60
2023/07/14 06:52:26;;;;;;;10.23;2.40;;;;;;;15.83;100.00;101271.09;5011345;28;20046;-60
2023/07/14 06:54:52;;;;;;;4.97;2.38;;;;;;;15.81;100.00;101275.88;5012035;28;20145;-60
2023/07/14 06:57:19;;;;;;;5.20;2.55;;;;;;;16.09;100.00;101281.53;5010442;28;20125;-60
2023/07/14 06:59:46;;;;;;;4.28;2.40;;;;;;;16.16;100.00;101285.19;5011219;28;20564;-60
2023/07/14 07:02:12;;;;;;;5.75;2.40;;;;;;;16.02;100.00;101277.88;5010596;28;20493;-61
2023/07/14 07:04:39;;;;;;;5.22;2.08;;;;;;;16.03;100.00;101279.56;5010244;28;20057;-60
2023/07/14 07:07:06;;;;;;;7.88;2.85;;;;;;;16.13;100.00;101274.72;5011021;28;20053;-60
2023/07/14 07:09:32;;;;;;;3.00;1.75;;;;;;;16.46;100.00;101284.38;5011382;28;20494;-60
2023/07/14 07:11:59;;;;;;;6.68;2.25;;;;;;;16.68;100.00;101280.81;5010985;28;20464;-59
2023/07/14 07:14:27;;;;;;;12.57;3.17;;;;;;;16.85;100.00;101286.84;5011351;28;20133;-60
2023/07/14 07:16:53;;;;;;;8.07;2.45;;;;;;;16.89;100.00;101280.88;5011465;28;20081;-61
2023/07/14 07:19:20;;;;;;;5.22;2.40;;;;;;;17.02;100.00;101284.78;5011045;28;20049;-60
2023/07/14 07:21:46;;;;;;;9.00;2.58;;;;;;;17.38;100.00;101279.41;5009970;28;20430;-61
2023/07/14 07:24:13;;;;;;;4.95;2.05;;;;;;;17.77;100.00;101278.97;5009113;28;20058;-60
2023/07/14 07:26:39;;;;;;;6.50;1.90;;;;;;;17.70;100.00;101267.22;5009754;28;20556;-61
2023/07/14 07:29:07;;;;;;;5.32;2.58;;;;;;;18.07;100.00;101276.94;5010960;28;20078;-60
2023/07/14 07:31:34;;;;;;;4.93;1.95;;;;;;;18.04;100.00;101268.34;5023697;28;20045;-60
2023/07/14 07:34:01;;;;;;;4.88;1.92;;;;;;;18.38;98.54;101264.88;5030596;28;20049;-60
2023/07/14 07:36:27;;;;;;;4.38;2.00;;;;;;;19.13;89.91;101256.91;5030538;28;20045;-60
2023/07/14 07:38:54;;;;;;;7.60;2.17;;;;;;;19.34;89.53;101259.50;5030871;28;20053;-60
2023/07/14 07:41:24;;;;;;;4.35;2.42;;;;;;;19.94;84.41;101257.75;5030838;28;20049;-60
2023/07/14 07:43:51;;;;;;;6.18;2.17;;;;;;;19.73;82.93;101263.38;5030428;28;20485;-60
2023/07/14 07:46:21;;;;;;;6.85;2.50;;;;;;;20.06;77.68;101257.09;5029950;28;20045;-60
2023/07/14 07:48:48;;;;;;;6.13;2.10;;;;;;;20.46;72.13;101252.47;5030877;28;20489;-60
2023/07/14 07:51:14;;;;;;;7.88;2.35;;;;;;;20.97;71.48;101248.09;5029505;28;20045;-60
2023/07/14 07:53:41;;;;;;;7.68;2.10;;;;;;;21.13;65.37;101243.03;5029805;28;20049;-60
2023/07/14 07:56:09;;;;;;;6.35;2.20;;;;;;;21.12;64.58;101246.81;5030244;28;20050;-60
2023/07/14 07:58:36;;;;;;;12.80;2.42;;;;;;;21.49;64.62;101240.69;5028526;28;20069;-60
2023/07/14 08:01:04;;;;;;;5.55;1.48;;;;;;;21.72;64.26;101246.44;5029731;28;20056;-60
2023/07/14 08:03:33;;;;;;;6.70;4.07;;;;;;;21.27;64.23;101241.06;5029430;28;20187;-59
2023/07/14 08:06:02;;;;;;;6.55;1.92;;;;;;;21.46;61.92;101235.69;5030041;28;20049;-59
2023/07/14 08:08:29;;;;;;;6.53;2.30;;;;;;;21.88;61.34;101227.88;5030055;28;20041;-60
2023/07/14 08:10:56;;;;;;;4.72;1.63;;;;;;;22.31;59.52;101233.31;5030037;28;20393;-59
2023/07/14 08:13:25;;;;;;;6.22;1.98;;;;;;;22.39;58.47;101233.03;5029729;28;20069;-63
2023/07/14 08:15:53;;;;;;;8.45;1.65;;;;;;;22.10;56.82;101231.84;5030596;28;20132;-61
2023/07/14 08:18:22;;;;;;;4.95;1.73;;;;;;;22.43;53.95;101231.53;5024923;28;20046;-61
2023/07/14 08:20:49;;;;;;;5.45;1.55;;;;;;;22.51;52.81;101235.88;5009988;28;20057;-59
2023/07/14 08:23:18;;;;;;;7.25;2.00;;;;;;;22.76;52.40;101230.31;5010453;28;20042;-60
2023/07/14 08:25:55;;;;;;;5.82;1.70;;;;;;;22.40;52.74;101225.69;5010568;28;20050;-60
2023/07/14 08:28:23;;;;;;;4.25;1.70;;;;;;;22.35;51.56;101218.13;5012484;28;20087;-60
2023/07/14 08:30:55;;;;;;;5.90;1.77;;;;;;;22.67;50.72;101218.88;5020433;28;20128;-60
2023/07/14 08:33:23;;;;;;;6.88;1.70;;;;;;;22.84;50.00;101220.97;5031021;28;20470;-61
2023/07/14 08:35:52;;;;;;;7.40;1.58;;;;;;;23.07;50.35;101223.81;5030104;28;20053;-60
2023/07/14 08:38:19;;;;;;;4.18;1.77;;;;;;;23.09;49.21;101229.91;5030126;28;20049;-62
2023/07/14 08:40:54;;;;;;;6.53;1.83;;;;;;;22.89;50.40;101218.41;5030111;28;20053;-61
2023/07/14 08:43:31;;;;;;;8.02;1.73;;;;;;;22.89;49.68;101218.41;5028508;28;20112;-60
2023/07/14 08:46:24;;;;;;;2.40;1.45;;;;;;;23.06;49.40;101219.44;5029025;28;20440;-60
2023/07/14 08:49:04;;;;;;;7.72;1.90;;;;;;;23.71;48.00;101222.28;5025569;28;20046;-60
2023/07/14 08:51:37;;;;;;;7.63;2.00;;;;;;;23.62;47.29;101218.19;5029941;28;20099;-60
2023/07/14 08:54:12;;;;;;;6.05;1.90;;;;;;;24.12;47.49;101217.78;5029687;28;20057;-61
2023/07/14 08:56:40;;;;;;;3.90;1.80;;;;;;;24.35;46.90;101216.09;5028317;28;20496;-61
2023/07/14 08:59:15;;;;;;;9.55;1.38;;;;;;;25.01;45.51;101213.97;5029179;28;20551;-61
2023/07/14 09:01:54;;;;;;;5.20;1.60;;;;;;;25.36;43.28;101211.06;5029636;28;20050;-60
2023/07/14 09:04:26;;;;;;;5.45;2.10;;;;;;;24.30;43.85;101218.72;5029418;28;20049;-61
2023/07/14 09:06:53;;;;;;;7.15;1.85;;;;;;;24.58;43.76;101204.31;5029446;28;20049;-63
2023/07/14 09:09:31;;;;;;;6.47;1.73;;;;;;;25.00;43.49;101209.56;5029985;28;20053;-60
2023/07/14 09:12:05;;;;;;;5.70;1.30;;;;;;;25.04;43.25;101206.06;5030042;28;20073;-59
2023/07/14 09:14:53;;;;;;;2.63;1.50;;;;;;;25.12;42.36;101211.16;5028150;28;20096;-61
2023/07/14 09:17:26;;;;;;;5.15;1.70;;;;;;;24.88;42.96;101206.81;5028335;28;20158;-61
2023/07/14 09:20:31;;;;;;;4.20;1.33;;;;;;;24.64;43.46;101193.16;5024487;28;20050;-60
2023/07/14 09:23:05;;;;;;;4.13;1.45;;;;;;;24.89;41.25;101192.88;5014694;28;20049;-62
2023/07/14 09:25:52;;;;;;;4.10;1.60;;;;;;;24.87;41.52;101202.41;5014866;28;20068;-61
2023/07/14 09:28:25;;;;;;;7.82;1.42;;;;;;;25.72;40.59;101192.44;5007454;28;20037;-61
2023/07/14 09:30:52;;;;;;;6.07;1.85;;;;;;;25.30;41.69;101198.31;5011665;28;20041;-61
2023/07/14 09:33:20;;;;;;;2.97;1.50;;;;;;;24.84;42.96;101192.75;5036019;28;20059;-61
2023/07/14 09:35:49;;;;;;;4.82;1.50;;;;;;;24.20;44.40;101195.50;5034954;28;20563;-60
2023/07/14 09:38:54;;;;;;;19.63;1.90;;;;;;;24.91;41.63;101193.44;5035453;28;20069;-61
2023/07/14 09:41:24;;;;;;;5.80;1.73;;;;;;;25.88;38.87;101185.28;5032701;28;20123;-62
2023/07/14 09:43:57;;;;;;;5.40;1.60;;;;;;;26.20;38.70;101191.84;5015417;28;20081;-60
2023/07/14 09:46:25;;;;;;;3.67;1.30;;;;;;;26.85;38.08;101184.72;5015191;28;20045;-64
2023/07/14 09:49:04;;;;;;;3.33;1.42;;;;;;;26.81;37.09;101186.31;5015744;28;20417;-60
2023/07/14 09:51:30;;;;;;;5.05;1.67;;;;;;;26.99;36.71;101180.47;5014796;28;20493;-61
2023/07/14 09:53:59;;;;;;;4.03;1.35;;;;;;;26.56;35.71;101178.56;5015567;28;20211;-62
2023/07/14 09:56:32;;;;;;;4.68;1.33;;;;;;;26.42;36.40;101175.38;5014596;28;20050;-61
2023/07/14 09:59:03;;;;;;;4.97;1.73;;;;;;;26.72;36.25;101168.56;5014613;28;20072;-60
2023/07/14 10:01:31;;;;;;;3.97;1.45;;;;;;;26.81;36.67;101160.72;5015543;28;20159;-60
2023/07/14 10:04:11;;;;;;;3.35;1.40;;;;;;;26.75;36.75;101163.41;5014535;28;20125;-60
2023/07/14 10:06:38;;;;;;;10.52;1.90;;;;;;;26.70;36.21;101165.25;5014974;28;20049;-60
2023/07/14 10:09:13;;;;;;;4.40;1.65;;;;;;;26.70;35.90;101162.50;5015182;28;20042;-60
2023/07/14 10:11:46;;;;;;;5.22;1.40;;;;;;;26.18;36.42;101162.94;5014513;28;20107;-60
2023/07/14 10:14:38;;;;;;;3.00;1.60;;;;;;;26.22;37.23;101150.34;5014955;28;20116;-60
2023/07/14 10:17:05;;;;;;;4.55;1.60;;;;;;;27.47;35.58;101151.19;5015361;28;20057;-59
2023/07/14 10:19:36;;;;;;;2.90;1.52;;;;;;;28.21;34.63;101146.72;5015394;28;20050;-60
2023/07/14 10:22:11;;;;;;;6.40;2.03;;;;;;;28.42;34.52;101153.19;5015681;28;20490;-60
2023/07/14 10:24:38;;;;;;;2.97;1.35;;;;;;;27.95;33.53;101138.31;5015407;28;20058;-61
2023/07/14 10:27:12;;;;;;;6.03;1.73;;;;;;;29.22;32.21;101137.13;5014973;28;20069;-61
2023/07/14 10:29:46;;;;;;;11.63;1.52;;;;;;;29.73;31.76;101134.34;5014608;28;20563;-61
2023/07/14 10:32:30;;;;;;;3.58;1.33;;;;;;;29.71;30.87;101142.09;5013113;28;20505;-60
2023/07/14 10:35:08;;;;;;;5.97;1.45;;;;;;;29.17;31.51;101139.06;5010213;28;20100;-61
2023/07/14 10:37:40;;;;;;;6.53;1.55;;;;;;;29.43;30.61;101137.09;5011887;28;20564;-61
2023/07/14 10:40:14;;;;;;;3.35;1.50;;;;;;;27.74;33.11;101131.81;5012024;28;20049;-61
2023/07/14 10:43:04;;;;;;;6.00;1.70;;;;;;;27.80;33.87;101127.19;5012205;28;20497;-61
2023/07/14 10:45:34;;;;;;;2.45;1.30;;;;;;;27.81;34.06;101126.06;5011956;28;20049;-61
2023/07/14 10:48:03;;;;;;;5.82;1.73;;;;;;;27.85;32.83;101118.94;5012295;28;20164;-61
2023/07/14 10:50:36;;;;;;;4.63;2.03;;;;;;;27.09;33.98;101124.66;5011648;28;20077;-61
2023/07/14 10:53:13;;;;;;;6.25;1.48;;;;;;;26.37;34.52;101122.19;5012181;28;20054;-61
2023/07/14 10:55:42;;;;;;;4.43;1.65;;;;;;;26.51;35.97;101116.03;5012062;28;20100;-61
2023/07/14 10:58:18;;;;;;;2.03;1.15;;;;;;;26.93;34.77;101122.84;5011879;28;20502;-61
2023/07/14 11:00:51;;;;;;;4.78;1.65;;;;;;;27.71;33.50;101117.75;5011510;28;20100;-61
2023/07/14 11:03:35;;;;;;;2.83;1.63;;;;;;;28.42;33.45;101109.91;5011745;28;20494;-61
2023/07/14 11:06:10;;;;;;;1.95;1.27;;;;;;;28.31;32.36;101107.31;5011461;28;20057;-63
2023/07/14 11:08:37;;;;;;;2.38;1.30;;;;;;;28.41;33.27;101099.94;5010930;28;20046;-62
2023/07/14 11:11:19;;;;;;;5.30;1.60;;;;;;;28.28;33.29;101103.16;5011636;28;20078;-60
2023/07/14 11:14:07;;;;;;;5.80;1.63;;;;;;;28.10;31.99;101096.19;5010584;28;20512;-60
2023/07/14 11:16:45;;;;;;;4.72;2.17;;;;;;;27.27;33.75;101098.63;5011272;28;20371;-61
2023/07/14 11:19:26;;;;;;;4.93;1.98;;;;;;;27.73;33.54;101093.50;5011316;28;20050;-61
2023/07/14 11:22:35;;;;;;;8.02;1.67;;;;;;;27.11;33.13;101094.13;5011058;28;20072;-61
2023/07/14 11:25:20;;;;;;;8.10;1.60;;;;;;;26.92;33.74;101086.22;5010692;28;20179;-62
2023/07/14 11:28:11;;;;;;;5.68;2.15;;;;;;;26.51;34.89;101085.78;5010736;28;20461;-61
2023/07/14 11:30:42;;;;;;;5.03;1.90;;;;;;;26.35;36.14;101086.72;5013749;28;20482;-60
2023/07/14 11:33:33;;;;;;;2.70;1.50;;;;;;;26.02;35.85;101080.22;5030368;28;20053;-61
2023/07/14 11:36:20;;;;;;;4.40;1.73;;;;;;;25.76;36.02;101073.56;5030495;28;20045;-61
2023/07/14 11:39:12;;;;;;;3.90;2.00;;;;;;;25.79;35.70;101078.53;5029251;28;20103;-60